Time;durP1;ratioP1;P1;durP2;ratioP2;P2;SDS_P1;SDS_P2;PMS_P1;PMS_P2;Temp;Humidity;BMP_temperature;BMP_pressure;BME280_temperature;BME280_humidity;BME280_pressure;Samples;Min_cycle;Max_cycle;Signal;HPM_P1;HPM_P2
2024/04/09 00:01:39;;;;;;;10.95;2.70;;;;;;;;;;10913137;27;20024;-79
2024/04/09 00:06:44;;;;;;;17.77;2.03;;;;;;;;;;10919550;27;20006;-77
2024/04/09 00:11:49;;;;;;;15.18;2.10;;;;;;;;;;10942643;27;20021;-78
2024/04/09 00:16:57;;;;;;;13.02;1.65;;;;;;;;;;10925259;27;20034;-78
2024/04/09 00:22:02;;;;;;;11.60;2.13;;;;;;;;;;10933670;27;20021;-78
2024/04/09 00:27:07;;;;;;;5.90;1.40;;;;;;;;;;10926300;26;19998;-78
2024/04/09 00:32:15;;;;;;;6.82;1.40;;;;;;;;;;10897059;27;20017;-76
2024/04/09 00:37:20;;;;;;;6.15;1.30;;;;;;;;;;10890492;27;20308;-75
2024/04/09 00:42:26;;;;;;;8.68;1.98;;;;;;;;;;10883696;27;20646;-75
2024/04/09 00:47:34;;;;;;;13.52;2.75;;;;;;;;;;10901515;26;20083;-75
2024/04/09 00:52:38;;;;;;;8.77;1.60;;;;;;;;;;10878579;27;20102;-77
2024/04/09 00:57:48;;;;;;;5.63;1.17;;;;;;;;;;10889341;27;20014;-79
2024/04/09 01:02:56;;;;;;;13.57;2.22;;;;;;;;;;10885557;27;20025;-79
2024/04/09 01:08:00;;;;;;;3.75;1.27;;;;;;;;;;10885876;27;20011;-77
2024/04/09 01:13:05;;;;;;;15.65;1.63;;;;;;;;;;10889726;27;20014;-77
2024/04/09 01:18:12;;;;;;;8.70;2.08;;;;;;;;;;10893946;27;20014;-75
2024/04/09 01:23:33;;;;;;;13.43;2.00;;;;;;;;;;10892971;27;20033;-76
2024/04/09 01:28:39;;;;;;;15.13;2.80;;;;;;;;;;10888266;27;20011;-77
2024/04/09 01:33:45;;;;;;;12.00;2.47;;;;;;;;;;10889577;27;20026;-78
2024/04/09 01:38:52;;;;;;;12.43;2.50;;;;;;;;;;10893047;27;20038;-77
2024/04/09 01:43:57;;;;;;;14.60;2.17;;;;;;;;;;10915677;26;20049;-77
2024/04/09 01:49:03;;;;;;;11.07;2.10;;;;;;;;;;10890539;27;20077;-78
2024/04/09 01:54:11;;;;;;;13.40;2.53;;;;;;;;;;10890489;27;20019;-79
2024/04/09 01:59:16;;;;;;;10.25;1.90;;;;;;;;;;10885879;27;20462;-76
2024/04/09 02:04:20;;;;;;;12.90;1.50;;;;;;;;;;10900244;27;20089;-78
2024/04/09 02:09:28;;;;;;;9.07;2.13;;;;;;;;;;10895169;27;20006;-77
2024/04/09 02:14:32;;;;;;;13.55;2.65;;;;;;;;;;10885821;27;20340;-77
2024/04/09 02:19:37;;;;;;;10.60;1.85;;;;;;;;;;10890427;27;20014;-77
2024/04/09 02:24:44;;;;;;;18.55;2.42;;;;;;;;;;10889052;27;20009;-78
2024/04/09 02:29:49;;;;;;;7.53;2.28;;;;;;;;;;10892862;27;20013;-77
2024/04/09 02:34:54;;;;;;;6.30;2.22;;;;;;;;;;10887569;27;20009;-76
2024/04/09 02:40:03;;;;;;;7.80;1.67;;;;;;;;;;10912049;26;20017;-78
2024/04/09 02:45:09;;;;;;;12.38;2.58;;;;;;;;;;10887686;27;20014;-77
2024/04/09 02:50:15;;;;;;;5.40;1.63;;;;;;;;;;10888521;27;20006;-77
2024/04/09 02:55:22;;;;;;;10.52;1.63;;;;;;;;;;10891951;27;20146;-77
2024/04/09 03:00:28;;;;;;;7.25;1.88;;;;;;;;;;10887112;27;20002;-77
2024/04/09 03:05:34;;;;;;;11.25;1.73;;;;;;;;;;10891137;27;20014;-77
2024/04/09 03:10:41;;;;;;;3.55;1.30;;;;;;;;;;10890145;27;20017;-76
2024/04/09 03:15:46;;;;;;;10.73;2.30;;;;;;;;;;10887723;27;20467;-79
2024/04/09 03:20:51;;;;;;;14.88;2.25;;;;;;;;;;10918222;26;20326;-77
2024/04/09 03:25:59;;;;;;;9.73;2.35;;;;;;;;;;10886511;27;20711;-78
2024/04/09 03:31:05;;;;;;;8.88;2.53;;;;;;;;;;10885088;27;20086;-79
2024/04/09 03:36:10;;;;;;;11.30;2.03;;;;;;;;;;10889629;27;20021;-77
2024/04/09 03:41:17;;;;;;;10.07;3.17;;;;;;;;;;10892784;27;20014;-77
2024/04/09 03:46:23;;;;;;;9.57;1.98;;;;;;;;;;10886849;27;20010;-78
2024/04/09 03:51:27;;;;;;;15.60;2.70;;;;;;;;;;10887392;27;20100;-79
2024/04/09 03:56:35;;;;;;;8.95;1.90;;;;;;;;;;10886977;27;20305;-79
2024/04/09 04:01:39;;;;;;;9.57;2.38;;;;;;;;;;10888848;27;20447;-79
2024/04/09 04:06:44;;;;;;;12.32;2.63;;;;;;;;;;10887393;27;20038;-79
2024/04/09 04:11:51;;;;;;;9.77;2.42;;;;;;;;;;10891787;27;19999;-79
2024/04/09 04:16:56;;;;;;;4.65;1.50;;;;;;;;;;10887433;27;20084;-79
2024/04/09 04:22:01;;;;;;;18.65;3.28;;;;;;;;;;10889823;27;20010;-79
2024/04/09 04:27:08;;;;;;;12.50;3.03;;;;;;;;;;10893193;27;20002;-78
2024/04/09 04:32:14;;;;;;;10.70;2.17;;;;;;;;;;10895560;27;20025;-77
2024/04/09 04:37:18;;;;;;;8.18;1.75;;;;;;;;;;10897791;27;20007;-82
2024/04/09 04:42:25;;;;;;;7.60;2.45;;;;;;;;;;10925672;26;20014;-77
2024/04/09 04:47:30;;;;;;;17.85;3.20;;;;;;;;;;10893328;27;20026;-77
2024/04/09 04:52:36;;;;;;;6.55;2.15;;;;;;;;;;10889463;27;20387;-78
2024/04/09 04:57:44;;;;;;;11.68;2.40;;;;;;;;;;10888829;27;20459;-77
2024/04/09 05:02:49;;;;;;;14.18;2.78;;;;;;;;;;10886184;27;20021;-78
2024/04/09 05:07:54;;;;;;;11.35;2.30;;;;;;;;;;10888060;27;20687;-78
2024/04/09 05:13:01;;;;;;;7.15;1.98;;;;;;;;;;10891803;27;20022;-78
2024/04/09 05:18:07;;;;;;;9.07;2.42;;;;;;;;;;10902360;27;20449;-80
2024/04/09 05:23:14;;;;;;;9.60;2.55;;;;;;;;;;10911121;27;20621;-79
2024/04/09 05:28:21;;;;;;;12.95;2.92;;;;;;;;;;10919524;26;20038;-79
2024/04/09 05:33:26;;;;;;;6.93;2.15;;;;;;;;;;10898107;27;20018;-80
2024/04/09 05:38:30;;;;;;;10.55;2.00;;;;;;;;;;10907401;27;20389;-79
2024/04/09 05:43:41;;;;;;;13.35;3.05;;;;;;;;;;10903722;27;20450;-79
2024/04/09 05:48:46;;;;;;;12.00;2.72;;;;;;;;;;10901102;27;20022;-80
2024/04/09 05:53:51;;;;;;;12.15;3.40;;;;;;;;;;10910704;27;20026;-80
2024/04/09 05:59:00;;;;;;;12.02;2.42;;;;;;;;;;10900967;27;20018;-79
2024/04/09 06:04:05;;;;;;;14.77;3.40;;;;;;;;;;10912137;27;20010;-78
2024/04/09 06:09:10;;;;;;;9.43;2.40;;;;;;;;;;10915697;27;20013;-78
2024/04/09 06:14:19;;;;;;;15.60;3.47;;;;;;;;;;10921158;27;20022;-78
2024/04/09 06:19:24;;;;;;;12.75;3.17;;;;;;;;;;10929738;27;20010;-81
2024/04/09 06:24:29;;;;;;;18.05;3.72;;;;;;;;;;10936566;27;20006;-78
2024/04/09 06:29:37;;;;;;;15.88;3.70;;;;;;;;;;10925861;26;20029;-79
2024/04/09 06:34:43;;;;;;;18.02;3.05;;;;;;;;;;10933109;27;20018;-79
2024/04/09 06:39:48;;;;;;;16.30;3.42;;;;;;;;;;10902560;27;20006;-80
2024/04/09 06:44:57;;;;;;;14.02;2.85;;;;;;;;;;10902005;27;20510;-79
2024/04/09 06:50:04;;;;;;;17.92;2.88;;;;;;;;;;10924809;26;20459;-80
2024/04/09 06:55:09;;;;;;;23.05;3.83;;;;;;;;;;10897187;27;20002;-80
2024/04/09 07:00:17;;;;;;;19.63;4.18;;;;;;;;;;10896657;27;20018;-79
2024/04/09 07:05:22;;;;;;;14.85;3.08;;;;;;;;;;10894203;27;20017;-78
2024/04/09 07:10:28;;;;;;;10.60;2.67;;;;;;;;;;10911468;26;20372;-78
2024/04/09 07:15:35;;;;;;;12.80;2.70;;;;;;;;;;10884008;27;20014;-77
2024/04/09 07:20:40;;;;;;;6.95;2.08;;;;;;;;;;10887691;27;20014;-77
2024/04/09 07:25:45;;;;;;;8.73;2.15;;;;;;;;;;10883960;27;20007;-78
2024/04/09 07:30:55;;;;;;;18.15;2.63;;;;;;;;;;10884809;27;20006;-77
2024/04/09 07:36:00;;;;;;;13.80;2.60;;;;;;;;;;10883731;27;20626;-78
2024/04/09 07:41:04;;;;;;;10.05;2.20;;;;;;;;;;10883583;27;20007;-78
2024/04/09 07:46:11;;;;;;;12.85;3.00;;;;;;;;;;10909980;26;22769;-78
2024/04/09 07:51:17;;;;;;;16.40;2.10;;;;;;;;;;10886981;27;20006;-77
2024/04/09 07:56:22;;;;;;;9.25;2.60;;;;;;;;;;10882345;27;20022;-77
2024/04/09 08:01:29;;;;;;;15.90;2.78;;;;;;;;;;10880462;27;20084;-77
2024/04/09 08:06:33;;;;;;;11.57;2.63;;;;;;;;;;10882030;27;20010;-77
2024/04/09 08:11:42;;;;;;;11.45;2.50;;;;;;;;;;10877221;27;20046;-76
2024/04/09 08:16:51;;;;;;;8.40;2.28;;;;;;;;;;10878964;27;20101;-77
2024/04/09 08:21:55;;;;;;;11.35;2.50;;;;;;;;;;10885343;27;20082;-78
2024/04/09 08:27:01;;;;;;;17.27;3.05;;;;;;;;;;10878849;27;20002;-77
2024/04/09 08:32:10;;;;;;;11.57;2.53;;;;;;;;;;10880172;27;20058;-78
2024/04/09 08:37:16;;;;;;;17.50;2.85;;;;;;;;;;10885588;27;20013;-78
2024/04/09 08:42:22;;;;;;;12.35;1.92;;;;;;;;;;10886954;27;20002;-78
2024/04/09 08:47:30;;;;;;;12.30;2.30;;;;;;;;;;10885069;27;20002;-79
2024/04/09 08:52:35;;;;;;;13.80;2.45;;;;;;;;;;10944649;26;20511;-78
2024/04/09 08:57:40;;;;;;;11.32;2.78;;;;;;;;;;10885243;27;20065;-78
2024/04/09 09:02:49;;;;;;;16.00;3.63;;;;;;;;;;10884982;27;20041;-77
2024/04/09 09:08:00;;;;;;;10.35;2.15;;;;;;;;;;10882996;27;20014;-78
2024/04/09 09:13:10;;;;;;;18.83;2.85;;;;;;;;;;10881844;27;20092;-78
2024/04/09 09:18:26;;;;;;;10.63;2.28;;;;;;;;;;10885491;27;20011;-78
2024/04/09 09:23:32;;;;;;;13.38;2.42;;;;;;;;;;10885902;27;20027;-77
2024/04/09 09:28:37;;;;;;;14.32;2.78;;;;;;;;;;10892179;27;20431;-78
2024/04/09 09:33:45;;;;;;;16.70;2.72;;;;;;;;;;10891270;27;20021;-77
2024/04/09 09:38:50;;;;;;;16.20;2.72;;;;;;;;;;10888079;27;20526;-79
2024/04/09 09:43:55;;;;;;;18.42;3.38;;;;;;;;;;10887917;27;20042;-79
2024/04/09 09:49:07;;;;;;;15.68;3.55;;;;;;;;;;10895843;27;20062;-78
2024/04/09 09:54:12;;;;;;;17.70;2.95;;;;;;;;;;10891864;27;20006;-79
2024/04/09 09:59:17;;;;;;;17.30;2.70;;;;;;;;;;10886230;27;20494;-78
2024/04/09 10:04:27;;;;;;;14.65;2.88;;;;;;;;;;10894507;27;20013;-78
2024/04/09 10:09:40;;;;;;;8.27;2.38;;;;;;;;;;10885953;27;20002;-78
2024/04/09 10:14:54;;;;;;;15.43;2.28;;;;;;;;;;10888174;27;20078;-79
2024/04/09 10:20:04;;;;;;;15.35;3.17;;;;;;;;;;10887429;27;20425;-79
2024/04/09 10:25:17;;;;;;;9.85;2.35;;;;;;;;;;10906765;26;20021;-79
2024/04/09 10:30:28;;;;;;;8.30;2.08;;;;;;;;;;10882240;27;20484;-79
2024/04/09 10:35:37;;;;;;;10.75;2.40;;;;;;;;;;10888959;27;20010;-80
2024/04/09 10:40:45;;;;;;;17.55;2.78;;;;;;;;;;10894863;27;20323;-80
2024/04/09 10:45:50;;;;;;;23.17;3.28;;;;;;;;;;10892850;27;20030;-79
2024/04/09 10:51:15;;;;;;;20.05;3.28;;;;;;;;;;10893683;27;20014;-79
2024/04/09 10:56:23;;;;;;;15.68;3.25;;;;;;;;;;10888029;27;20038;-80
2024/04/09 11:01:29;;;;;;;16.33;3.70;;;;;;;;;;10892853;27;20002;-79
2024/04/09 11:06:38;;;;;;;18.10;3.63;;;;;;;;;;10892914;27;20011;-79
2024/04/09 11:11:45;;;;;;;11.07;2.92;;;;;;;;;;10892029;27;20026;-79
2024/04/09 11:16:50;;;;;;;21.65;3.80;;;;;;;;;;10888218;27;20384;-79
2024/04/09 11:21:58;;;;;;;15.32;2.60;;;;;;;;;;10885814;27;20006;-78
2024/04/09 11:27:04;;;;;;;17.38;3.40;;;;;;;;;;10884179;27;20010;-79
2024/04/09 11:32:10;;;;;;;15.18;2.88;;;;;;;;;;10885247;27;20100;-79
2024/04/09 11:37:21;;;;;;;19.85;3.10;;;;;;;;;;10877827;27;20082;-79
2024/04/09 11:42:28;;;;;;;21.08;3.13;;;;;;;;;;10881650;27;20003;-79
2024/04/09 11:47:33;;;;;;;20.33;3.78;;;;;;;;;;10885596;27;20833;-80
2024/04/09 11:52:41;;;;;;;21.42;4.43;;;;;;;;;;10891933;27;20014;-79
2024/04/09 11:57:46;;;;;;;21.27;3.42;;;;;;;;;;10882033;27;20446;-80
2024/04/09 12:02:51;;;;;;;17.35;3.50;;;;;;;;;;10876013;27;20750;-79
2024/04/09 12:08:01;;;;;;;20.30;3.45;;;;;;;;;;10884712;27;20010;-79
2024/04/09 12:13:07;;;;;;;11.88;2.22;;;;;;;;;;10882674;27;20006;-80
2024/04/09 12:18:12;;;;;;;12.38;2.85;;;;;;;;;;10884138;27;20014;-80
2024/04/09 12:23:19;;;;;;;23.80;3.60;;;;;;;;;;10911644;26;20333;-80
2024/04/09 12:28:25;;;;;;;27.20;2.72;;;;;;;;;;10940160;26;20010;-79
2024/04/09 12:33:30;;;;;;;11.98;1.90;;;;;;;;;;10884580;27;20320;-79
2024/04/09 12:38:38;;;;;;;8.25;1.77;;;;;;;;;;10886362;27;20050;-79
2024/04/09 12:43:44;;;;;;;7.10;1.55;;;;;;;;;;10879055;27;20006;-80
2024/04/09 12:48:50;;;;;;;5.32;2.00;;;;;;;;;;10887722;27;20010;-78
2024/04/09 12:54:18;;;;;;;7.18;1.30;;;;;;;;;;10883868;27;20011;-78
2024/04/09 12:59:23;;;;;;;6.15;1.15;;;;;;;;;;10884209;27;19999;-80
2024/04/09 13:04:43;;;;;;;5.90;1.17;;;;;;;;;;10888229;27;20402;-78
2024/04/09 13:09:50;;;;;;;2.75;0.82;;;;;;;;;;10883538;27;20021;-77
2024/04/09 13:14:55;;;;;;;3.13;0.90;;;;;;;;;;10880197;27;19998;-78
2024/04/09 13:20:04;;;;;;;3.15;0.70;;;;;;;;;;10882026;27;20014;-78
2024/04/09 13:25:11;;;;;;;2.20;0.55;;;;;;;;;;10880609;27;20117;-78
2024/04/09 13:30:16;;;;;;;2.58;0.63;;;;;;;;;;10891444;27;20006;-78
2024/04/09 13:35:21;;;;;;;0.82;0.43;;;;;;;;;;10888516;27;20114;-78
2024/04/09 13:40:29;;;;;;;2.33;0.60;;;;;;;;;;10879280;27;20025;-79
2024/04/09 13:45:33;;;;;;;1.35;0.50;;;;;;;;;;10878720;27;20010;-78
2024/04/09 13:50:40;;;;;;;0.75;0.60;;;;;;;;;;10884020;27;20006;-80
2024/04/09 13:55:48;;;;;;;3.80;0.63;;;;;;;;;;10884393;27;20240;-76
2024/04/09 14:00:53;;;;;;;1.02;0.63;;;;;;;;;;10883874;27;20009;-78
2024/04/09 14:05:58;;;;;;;0.60;0.43;;;;;;;;;;10881713;27;20006;-78
2024/04/09 14:11:05;;;;;;;1.13;0.68;;;;;;;;;;10882686;27;20327;-78
2024/04/09 14:16:10;;;;;;;3.38;0.98;;;;;;;;;;10913591;26;20006;-77
2024/04/09 14:21:15;;;;;;;3.22;0.90;;;;;;;;;;10884145;27;20058;-79
2024/04/09 14:26:22;;;;;;;2.75;0.70;;;;;;;;;;10936636;26;20017;-78
2024/04/09 14:31:27;;;;;;;2.22;0.60;;;;;;;;;;10907628;26;20819;-79
2024/04/09 14:36:32;;;;;;;2.65;0.90;;;;;;;;;;10888410;27;20142;-78
2024/04/09 14:41:41;;;;;;;1.80;0.70;;;;;;;;;;10883720;27;20069;-78
2024/04/09 14:46:46;;;;;;;1.30;0.43;;;;;;;;;;10910439;26;20006;-78
2024/04/09 14:51:51;;;;;;;2.67;0.52;;;;;;;;;;10882767;27;20002;-78
2024/04/09 14:56:59;;;;;;;3.70;1.50;;;;;;;;;;10936032;26;20009;-79
2024/04/09 15:02:03;;;;;;;5.22;1.48;;;;;;;;;;10885586;26;20114;-79
2024/04/09 15:07:09;;;;;;;4.07;0.80;;;;;;;;;;10882833;27;20014;-79
2024/04/09 15:12:16;;;;;;;2.22;0.70;;;;;;;;;;10881660;27;20010;-77
2024/04/09 15:17:24;;;;;;;1.00;0.88;;;;;;;;;;10882609;27;20090;-78
2024/04/09 15:22:29;;;;;;;1.17;0.68;;;;;;;;;;10912926;26;20011;-78
2024/04/09 15:27:41;;;;;;;1.63;1.00;;;;;;;;;;10883633;27;20011;-79
2024/04/09 15:32:48;;;;;;;2.20;0.70;;;;;;;;;;10893905;27;20078;-77
2024/04/09 15:37:54;;;;;;;1.17;0.80;;;;;;;;;;10891290;27;20021;-77
2024/04/09 15:43:06;;;;;;;1.35;0.68;;;;;;;;;;10911043;26;20428;-78
2024/04/09 15:48:11;;;;;;;0.98;0.50;;;;;;;;;;10891487;27;20059;-77
2024/04/09 15:53:16;;;;;;;1.13;0.55;;;;;;;;;;10892046;27;20124;-77
2024/04/09 15:58:23;;;;;;;0.95;0.60;;;;;;;;;;10892126;26;20470;-77
2024/04/09 16:03:29;;;;;;;1.40;0.77;;;;;;;;;;10885525;27;20030;-78
2024/04/09 16:08:34;;;;;;;0.90;0.60;;;;;;;;;;10890390;27;19998;-77
2024/04/09 16:13:41;;;;;;;0.70;0.70;;;;;;;;;;10882515;27;19998;-78
2024/04/09 16:18:48;;;;;;;0.70;0.50;;;;;;;;;;10886378;27;20054;-78
2024/04/09 16:23:53;;;;;;;0.40;0.40;;;;;;;;;;10874515;27;20002;-76
2024/04/09 16:29:01;;;;;;;0.28;0.28;;;;;;;;;;10876447;27;20718;-76
2024/04/09 16:34:07;;;;;;;1.30;0.73;;;;;;;;;;10892609;27;20017;-76
2024/04/09 16:39:13;;;;;;;0.50;0.40;;;;;;;;;;10884786;27;22321;-76
2024/04/09 16:44:21;;;;;;;1.00;0.70;;;;;;;;;;10886738;27;20011;-76
2024/04/09 16:49:25;;;;;;;0.80;0.80;;;;;;;;;;10885387;27;20010;-76
2024/04/09 16:54:30;;;;;;;1.45;0.80;;;;;;;;;;10881343;27;20026;-76
2024/04/09 16:59:37;;;;;;;0.80;0.80;;;;;;;;;;10880518;27;20491;-75
2024/04/09 17:04:41;;;;;;;0.73;0.47;;;;;;;;;;10882398;27;20018;-77
2024/04/09 17:09:52;;;;;;;1.35;0.90;;;;;;;;;;10902153;26;20021;-78
2024/04/09 17:14:59;;;;;;;1.17;0.77;;;;;;;;;;10874766;27;20021;-78
2024/04/09 17:20:06;;;;;;;1.45;0.80;;;;;;;;;;10879501;27;20082;-78
2024/04/09 17:25:11;;;;;;;0.80;0.70;;;;;;;;;;10885093;27;22836;-78
2024/04/09 17:30:19;;;;;;;1.05;0.40;;;;;;;;;;10877337;27;20044;-78
2024/04/09 17:35:24;;;;;;;3.22;1.05;;;;;;;;;;10884273;27;20447;-78
2024/04/09 17:40:29;;;;;;;0.73;0.40;;;;;;;;;;10885199;27;20087;-78
2024/04/09 17:45:36;;;;;;;0.68;0.30;;;;;;;;;;10891518;27;20149;-78
2024/04/09 17:50:42;;;;;;;0.93;0.40;;;;;;;;;;10919590;26;20089;-78
2024/04/09 17:55:47;;;;;;;2.05;0.47;;;;;;;;;;10887728;27;20034;-78
2024/04/09 18:00:54;;;;;;;0.93;0.45;;;;;;;;;;10891356;27;20006;-78
2024/04/09 18:06:08;;;;;;;1.17;0.50;;;;;;;;;;10885603;27;20437;-76
2024/04/09 18:11:13;;;;;;;1.08;0.77;;;;;;;;;;10900290;27;20010;-77
2024/04/09 18:16:21;;;;;;;0.52;0.50;;;;;;;;;;10884776;27;20141;-77
2024/04/09 18:21:28;;;;;;;0.47;0.47;;;;;;;;;;10909542;26;20029;-77
2024/04/09 18:26:33;;;;;;;1.73;0.75;;;;;;;;;;10884367;27;20196;-77
2024/04/09 18:31:42;;;;;;;0.98;0.50;;;;;;;;;;10884504;27;20025;-78
2024/04/09 18:36:46;;;;;;;0.50;0.45;;;;;;;;;;10884620;27;20030;-79
2024/04/09 18:41:53;;;;;;;0.70;0.47;;;;;;;;;;10887891;27;20002;-78
2024/04/09 18:47:01;;;;;;;0.82;0.70;;;;;;;;;;10890991;27;20422;-79
2024/04/09 18:52:06;;;;;;;0.70;0.55;;;;;;;;;;10882760;27;20037;-76
2024/04/09 18:57:11;;;;;;;0.60;0.60;;;;;;;;;;10895070;27;20017;-78
2024/04/09 19:02:19;;;;;;;0.80;0.50;;;;;;;;;;10905850;27;20144;-77
2024/04/09 19:07:24;;;;;;;0.40;0.30;;;;;;;;;;10903288;27;20448;-76
2024/04/09 19:12:30;;;;;;;0.30;0.30;;;;;;;;;;10923682;26;20017;-77
2024/04/09 19:17:38;;;;;;;1.23;0.50;;;;;;;;;;10893022;27;20079;-77
2024/04/09 19:22:44;;;;;;;0.75;0.30;;;;;;;;;;10893262;27;20108;-78
2024/04/09 19:27:52;;;;;;;0.90;0.30;;;;;;;;;;10907961;27;20018;-78
2024/04/09 19:33:01;;;;;;;2.63;0.52;;;;;;;;;;10896886;27;20125;-80
2024/04/09 19:38:06;;;;;;;0.13;0.13;;;;;;;;;;10904004;27;20233;-78
2024/04/09 19:43:12;;;;;;;0.93;0.50;;;;;;;;;;10895884;27;20078;-77
2024/04/09 19:48:39;;;;;;;1.92;0.38;;;;;;;;;;10889302;27;20018;-76
2024/04/09 19:53:44;;;;;;;0.77;0.30;;;;;;;;;;10894674;27;20002;-77
2024/04/09 19:58:58;;;;;;;0.47;0.30;;;;;;;;;;10889236;27;20013;-78
2024/04/09 20:04:08;;;;;;;1.40;0.70;;;;;;;;;;10891590;27;20817;-77
2024/04/09 20:09:14;;;;;;;0.45;0.28;;;;;;;;;;10885441;27;20684;-78
2024/04/09 20:14:26;;;;;;;0.30;0.30;;;;;;;;;;10878650;27;20006;-78
2024/04/09 20:19:40;;;;;;;0.50;0.32;;;;;;;;;;10891900;27;20002;-76
2024/04/09 20:24:47;;;;;;;2.08;0.57;;;;;;;;;;10893013;27;20017;-77
2024/04/09 20:30:07;;;;;;;0.38;0.20;;;;;;;;;;10886262;27;20412;-79
2024/04/09 20:35:14;;;;;;;1.63;0.38;;;;;;;;;;10883721;27;20349;-76
2024/04/09 20:40:28;;;;;;;1.48;0.47;;;;;;;;;;10886330;27;20011;-77
2024/04/09 20:45:32;;;;;;;1.70;0.60;;;;;;;;;;10884734;27;20006;-77
2024/04/09 20:50:42;;;;;;;0.65;0.50;;;;;;;;;;10862132;27;20014;-77
2024/04/09 20:55:48;;;;;;;1.70;0.60;;;;;;;;;;10918618;26;20006;-78
2024/04/09 21:00:54;;;;;;;2.63;1.05;;;;;;;;;;10885348;27;20219;-77
2024/04/09 21:06:03;;;;;;;0.35;0.35;;;;;;;;;;10880668;27;20425;-77
2024/04/09 21:11:11;;;;;;;1.02;0.68;;;;;;;;;;10884881;27;20022;-77
2024/04/09 21:16:17;;;;;;;1.02;0.38;;;;;;;;;;10881234;27;20538;-76
2024/04/09 21:21:27;;;;;;;0.60;0.30;;;;;;;;;;10883889;27;20081;-78
2024/04/09 21:26:33;;;;;;;0.85;0.50;;;;;;;;;;10915516;26;20304;-78
2024/04/09 21:31:42;;;;;;;0.90;0.65;;;;;;;;;;10893336;27;20025;-77
2024/04/09 21:36:51;;;;;;;0.95;0.60;;;;;;;;;;10891256;27;20061;-77
2024/04/09 21:41:56;;;;;;;0.52;0.40;;;;;;;;;;10891552;27;20072;-78
2024/04/09 21:47:02;;;;;;;0.40;0.30;;;;;;;;;;10891626;27;20002;-78
2024/04/09 21:52:10;;;;;;;1.25;0.60;;;;;;;;;;10911930;26;20357;-79
2024/04/09 21:57:22;;;;;;;2.38;0.80;;;;;;;;;;10886022;27;20026;-77
2024/04/09 22:02:28;;;;;;;0.43;0.38;;;;;;;;;;10863513;27;20324;-78
2024/04/09 22:07:36;;;;;;;0.80;0.43;;;;;;;;;;10886912;27;20007;-79
2024/04/09 22:12:41;;;;;;;0.47;0.47;;;;;;;;;;10887879;27;20003;-78
2024/04/09 22:17:47;;;;;;;1.00;0.80;;;;;;;;;;10885246;27;20054;-78
2024/04/09 22:22:55;;;;;;;0.70;0.68;;;;;;;;;;10890309;27;20006;-78
2024/04/09 22:28:01;;;;;;;0.73;0.60;;;;;;;;;;10889963;27;20021;-78
2024/04/09 22:33:07;;;;;;;0.17;0.17;;;;;;;;;;10890063;27;20002;-77
2024/04/09 22:38:16;;;;;;;0.40;0.30;;;;;;;;;;10884438;27;20018;-77
2024/04/09 22:43:21;;;;;;;0.65;0.63;;;;;;;;;;10889103;27;20014;-76
2024/04/09 22:48:26;;;;;;;0.20;0.20;;;;;;;;;;10889399;27;20013;-76
2024/04/09 22:53:35;;;;;;;0.10;0.10;;;;;;;;;;10891013;27;20002;-77
2024/04/09 22:58:40;;;;;;;1.15;0.65;;;;;;;;;;10886882;27;20020;-77
2024/04/09 23:03:45;;;;;;;0.85;0.50;;;;;;;;;;10887520;27;20030;-77
2024/04/09 23:08:53;;;;;;;1.55;0.43;;;;;;;;;;10887070;27;20076;-77
2024/04/09 23:13:59;;;;;;;0.50;0.35;;;;;;;;;;10915413;26;20066;-78
2024/04/09 23:19:04;;;;;;;0.65;0.43;;;;;;;;;;10889847;27;20010;-78
2024/04/09 23:24:12;;;;;;;1.67;0.10;;;;;;;;;;10886640;27;20802;-77
2024/04/09 23:29:17;;;;;;;0.15;0.10;;;;;;;;;;10888571;27;20058;-77
2024/04/09 23:34:22;;;;;;;1.55;0.25;;;;;;;;;;10890703;27;20025;-77
2024/04/09 23:39:29;;;;;;;4.38;0.17;;;;;;;;;;10883821;27;20108;-79
2024/04/09 23:44:35;;;;;;;3.05;0.30;;;;;;;;;;10888729;27;20356;-80
2024/04/09 23:49:41;;;;;;;0.08;0.08;;;;;;;;;;10889803;27;20463;-78
2024/04/09 23:54:48;;;;;;;0.57;0.30;;;;;;;;;;10887861;27;20014;-78
2024/04/09 23:59:53;;;;;;;0.20;0.10;;;;;;;;;;10887560;27;20025;-78
